Latest Weather Observations for Middle Percy Island

IDQ60801

Issued at 9:35 am EST Wednesday 3 September 2014 (issued every 30 minutes, with the page automatically refreshed every 10 minutes)

About weather observations | Map of weather stations | Latest weather observations for QLD | Other Formats
Station Details ID: 200001 Name: MIDDLE PERCY ISLAND Lat: -21.66 Lon: 150.27 Height: 208.7 m
Data from the previous 72 hours. | See also: Recent months at Middle Percy Island
Date/Time
EST
Temp
°C
App
Temp
°C
Dew
Point
Rel
Hum
%
Delta-T
°C
Wind Press
QNH
hPa
Press
MSL
hPa
Rain
since 9 am
mm
Dir
 
Spd
km/h
Gust
km/h
Spd
kts
Gust
kts
03/09:30am 17.0 8.9 5.3 46 5.7 S 37 48 20 26 1018.0 1017.2 0.0
03/09:00am 16.9 8.8 5.2 46 5.7 S 37 50 20 27 1018.0 1017.2 0.0
03/08:30am 16.8 8.4 5.4 47 5.5 S 39 54 21 29 1017.9 1017.1 0.0
03/08:00am 16.7 8.7 5.6 48 5.4 S 37 48 20 26 1017.9 1017.1 0.0
03/07:30am 16.6 8.2 5.6 48 5.4 S 39 52 21 28 1017.6 1016.8 0.0
03/07:00am 16.6 9.2 6.7 52 4.9 S 35 48 19 26 1017.3 1016.5 0.0
03/06:30am 16.8 9.6 5.7 48 5.4 S 33 44 18 24 1016.9 1016.1 0.0
03/06:09am 16.9 10.5 5.2 46 5.7 S 28 46 15 25 1016.8 1016.0 0.0
03/06:00am 17.1 9.7 4.8 44 5.9 S 33 50 18 27 1016.3 1015.5 0.0
03/05:30am 17.2 10.9 7.3 52 5.0 S 30 43 16 23 1016.2 1015.4 0.0
03/05:00am 17.5 10.8 7.3 51 5.2 S 32 41 17 22 1015.7 1014.8 0.0
03/04:30am 17.8 10.6 7.8 52 5.1 S 35 46 19 25 1014.8 1014.0 0.0
03/04:00am 18.3 9.7 8.0 51 5.3 S 43 57 23 31 1014.6 1013.8 0.0
03/03:30am 18.5 11.8 12.3 67 3.5 S 39 52 21 28 1014.1 1013.3 0.0
03/03:00am 19.1 14.9 15.6 80 2.1 SSW 32 48 17 26 1014.4 1013.6 0.0
03/02:55am 19.2 15.3 15.5 79 2.2 SSW 30 39 16 21 1014.7 1013.9 0.0
03/02:30am 18.8 18.6 16.6 87 1.3 W 13 20 7 11 1014.9 1014.1 0.0
03/02:00am 18.9 18.7 18.4 97 0.3 NW 17 24 9 13 1014.7 1013.9 0.0
03/01:30am 18.7 17.7 18.0 96 0.4 NW 20 28 11 15 1015.0 1014.2 0.0
03/01:00am 18.7 16.8 17.7 94 0.6 NNW 24 35 13 19 1015.0 1014.2 0.0
03/12:30am 18.7 16.5 17.9 95 0.5 NNW 26 35 14 19 1014.8 1014.0 0.0
03/12:00am 18.6 15.8 17.4 93 0.7 NNW 28 39 15 21 1014.8 1014.0 0.0
 
Date/Time
EST
Temp
°C
App
Temp
°C
Dew
Point
Rel
Hum
%
Delta-T
°C
Wind Press
QNH
hPa
Press
MSL
hPa
Rain
since 9 am
mm
Dir
 
Spd
km/h
Gust
km/h
Spd
kts
Gust
kts
02/11:30pm 18.7 15.9 17.2 91 0.9 NNW 28 37 15 20 1014.9 1014.1 0.0
02/11:00pm 18.9 15.0 17.0 89 1.2 NNW 33 43 18 23 1014.6 1013.8 0.0
02/10:30pm 18.7 15.0 16.9 89 1.1 N 32 43 17 23 1014.4 1013.6 0.0
02/10:00pm 18.9 15.0 17.0 89 1.2 N 33 46 18 25 1014.2 1013.4 0.0
02/09:30pm 18.9 15.0 16.9 88 1.2 N 33 46 18 25 1014.2 1013.4 0.0
02/09:00pm 18.8 16.0 17.3 91 0.9 N 28 43 15 23 1014.4 1013.6 0.0
02/08:30pm 18.8 15.2 17.1 90 1.0 N 32 41 17 22 1014.4 1013.6 0.0
02/08:00pm 18.9 15.6 16.9 88 1.2 N 30 39 16 21 1014.1 1013.3 0.0
02/07:30pm 18.9 16.4 17.0 89 1.2 N 26 37 14 20 1014.1 1013.3 0.0
02/07:00pm 18.8 16.2 16.9 89 1.2 N 26 35 14 19 1013.9 1013.1 0.0
02/06:30pm 18.9 16.0 16.1 84 1.7 N 26 33 14 18 1013.8 1013.0 0.0
02/06:00pm 18.8 16.1 16.6 87 1.3 N 26 33 14 18 1013.3 1012.5 0.0
02/05:30pm 18.9 16.2 16.7 87 1.3 N 26 32 14 17 1013.5 1012.7 0.0
02/05:00pm 19.5 16.8 16.5 83 1.8 N 26 35 14 19 1013.5 1012.7 0.0
02/04:30pm 19.7 16.8 17.1 85 1.6 N 28 35 15 19 1013.3 1012.5 0.0
02/04:00pm 20.6 18.9 17.2 81 2.1 N 22 35 12 19 1013.6 1012.8 0.0
02/03:30pm 20.5 17.8 16.7 79 2.3 N 26 33 14 18 1013.4 1012.6 0.0
02/03:00pm 21.5 19.8 16.2 72 3.2 NNW 20 28 11 15 1013.8 1013.0 0.0
02/02:30pm 21.0 18.6 15.5 71 3.3 NNW 22 33 12 18 1014.3 1013.5 0.0
02/02:00pm 21.1 19.3 16.1 73 3.0 NNW 20 32 11 17 1015.0 1014.2 0.0
02/01:30pm 21.7 20.4 16.9 74 3.0 NNW 19 30 10 16 1015.6 1014.7 0.0
02/01:00pm 21.6 20.4 17.0 75 2.8 NNW 19 32 10 17 1015.9 1015.0 0.0
02/12:30pm 21.5 20.1 16.9 75 2.8 NW 20 32 11 17 1016.3 1015.5 0.0
02/12:00pm 21.1 19.0 16.1 73 3.0 NNW 22 32 12 17 1016.5 1015.7 0.0
02/11:30am 21.3 19.8 16.7 75 2.8 NW 20 30 11 16 1016.9 1016.1 0.0
02/11:00am 21.2 19.7 16.2 73 3.0 NW 19 28 10 15 1017.6 1016.8 0.0
02/10:30am 21.2 20.4 17.2 78 2.5 NNW 17 26 9 14 1018.0 1017.2 0.0
02/10:00am 20.5 19.4 16.3 77 2.5 NNW 17 26 9 14 1018.6 1017.8 0.0
02/09:30am 20.3 19.3 16.5 79 2.3 NNW 17 26 9 14 1018.7 1017.9 0.0
02/09:00am 19.9 19.2 16.3 80 2.2 NNW 15 22 8 12 1019.0 1018.2 0.0
02/08:30am 20.2 20.5 17.0 82 2.0 NNW 11 17 6 9 1018.9 1018.1 0.0
02/08:00am 19.2 18.4 16.2 83 1.8 NNW 15 22 8 12 1018.6 1017.8 0.0
02/07:30am 18.5 18.1 16.3 87 1.3 NNW 13 17 7 9 1018.6 1017.8 0.0
02/07:00am 17.7 17.7 16.2 91 0.9 NNW 11 17 6 9 1018.4 1017.6 0.0
02/06:30am 16.8 16.3 15.8 94 0.6 NNW 13 17 7 9 1018.2 1017.4 0.0
02/06:00am 16.6 16.0 15.6 94 0.6 NNW 13 15 7 8 1018.2 1017.4 0.0
02/05:30am 16.6 15.6 15.6 94 0.6 N 15 17 8 9 1017.9 1017.1 0.0
02/05:00am 16.4 15.8 15.6 95 0.5 N 13 17 7 9 1017.8 1017.0 0.0
02/04:30am 16.0 15.2 15.2 95 0.5 N 13 15 7 8 1017.8 1017.0 0.0
02/04:00am 16.0 15.2 15.0 94 0.6 N 13 15 7 8 1017.8 1017.0 0.0
02/03:30am 16.1 14.9 14.1 88 1.1 N 13 13 7 7 1017.9 1017.1 0.0
02/03:00am 16.8 17.2 15.3 91 0.9 NE 7 9 4 5 1018.3 1017.5 0.0
02/02:30am 17.0 17.4 15.3 90 1.0 NE 7 9 4 5 1018.3 1017.5 0.0
02/02:00am 17.2 17.3 15.4 89 1.1 NE 9 13 5 7 1018.1 1017.3 0.0
02/01:30am 17.3 17.3 15.3 88 1.2 ENE 9 15 5 8 1018.7 1017.9 0.0
02/01:00am 17.4 17.5 15.4 88 1.2 ENE 9 13 5 7 1019.0 1018.2 0.0
02/12:30am 17.6 17.3 15.4 87 1.3 ENE 11 17 6 9 1018.7 1017.9 0.0
02/12:00am 17.8 17.9 15.4 86 1.4 ENE 9 15 5 8 1019.0 1018.2 0.0
 
Date/Time
EST
Temp
°C
App
Temp
°C
Dew
Point
Rel
Hum
%
Delta-T
°C
Wind Press
QNH
hPa
Press
MSL
hPa
Rain
since 9 am
mm
Dir
 
Spd
km/h
Gust
km/h
Spd
kts
Gust
kts
01/11:30pm 17.7 17.7 15.3 86 1.4 ENE 9 15 5 8 1018.9 1018.1 0.0
01/11:00pm 17.6 17.3 15.4 87 1.3 ENE 11 15 6 8 1019.0 1018.2 0.0
01/10:30pm 17.6 17.2 15.2 86 1.4 E 11 13 6 7 1019.3 1018.5 0.0
01/10:00pm 17.7 17.2 14.8 83 1.7 ENE 11 13 6 7 1019.2 1018.4 0.0
01/09:30pm 17.8 17.2 14.7 82 1.8 ENE 11 15 6 8 1019.3 1018.5 0.0
01/09:00pm 17.7 17.4 14.4 81 1.9 ENE 9 13 5 7 1019.4 1018.6 0.0
01/08:30pm 17.7 17.0 14.2 80 2.0 E 11 15 6 8 1019.4 1018.6 0.0
01/08:00pm 17.9 17.2 14.4 80 2.0 ENE 11 15 6 8 1019.3 1018.5 0.0
01/07:30pm 17.7 17.3 14.0 79 2.1 E 9 11 5 6 1019.1 1018.3 0.0
01/07:00pm 17.7 17.2 13.8 78 2.2 E 9 9 5 5 1018.8 1018.0 0.0
01/06:30pm 17.6 17.1 13.7 78 2.2 E 9 11 5 6 1018.4 1017.6 0.0
01/06:00pm 17.7 17.4 13.4 76 2.4 E 7 11 4 6 1018.4 1017.6 0.0
01/05:30pm 18.5 18.3 13.1 71 3.1 ESE 6 7 3 4 1018.2 1017.4 0.0
01/05:00pm 19.5 19.2 13.2 67 3.6 ENE 7 11 4 6 1017.9 1017.1 0.0
01/04:30pm 20.1 19.2 13.6 66 3.8 ESE 11 15 6 8 1017.8 1017.0 0.0
01/04:00pm 20.4 20.1 13.4 64 4.0 SE 7 11 4 6 1017.6 1016.8 0.0
01/03:30pm 20.6 19.9 13.3 63 4.2 SSE 9 13 5 7 1017.4 1016.6 0.0
01/03:00pm 20.9 20.8 13.4 62 4.3 SE 6 11 3 6 1017.8 1017.0 0.0
01/02:30pm 20.9 20.3 13.4 62 4.3 SSW 9 13 5 7 1018.2 1017.4 0.0
01/02:00pm 21.9 20.9 10.4 48 6.3 N 6 11 3 6 1018.3 1017.5 0.0
01/01:30pm 21.4 21.4 14.3 64 4.2 ESE 7 17 4 9 1018.4 1017.6 0.0
01/01:00pm 20.5 20.9 13.7 65 3.9 SW 4 9 2 5 1019.0 1018.2 0.0
01/12:30pm 20.2 19.2 12.4 61 4.4 SSW 9 17 5 9 1019.5 1018.7 0.0
01/12:00pm 22.6 22.1 12.5 53 5.8 SE 7 11 4 6 1019.5 1018.7 0.0
01/11:30am 21.4 21.2 13.1 59 4.8 ESE 6 11 3 6 1019.8 1019.0 0.0
01/11:00am 21.2 20.8 13.1 60 4.7 SE 7 11 4 6 1020.0 1019.2 0.0
01/10:30am 21.5 21.3 13.7 61 4.6 ESE 7 11 4 6 1020.5 1019.7 0.0
01/10:00am 21.0 20.5 13.9 64 4.1 SSE 9 15 5 8 1020.9 1020.1 0.0
01/09:30am 20.4 20.0 12.9 62 4.3 SE 7 15 4 8 1021.0 1020.3 0.0
01/09:00am 20.1 19.4 13.1 64 4.0 SE 9 13 5 7 1020.9 1020.2 0.0
01/08:30am 19.6 18.5 13.1 66 3.7 SE 11 17 6 9 1020.8 1020.1 0.0
01/08:00am 19.8 19.6 13.5 67 3.6 ESE 7 9 4 5 1020.4 1019.7 0.0
01/07:30am 18.6 18.3 12.8 69 3.3 ESE 6 11 3 6 1020.0 1019.4 0.0
01/07:00am 18.1 17.3 12.8 71 3.0 ENE 9 13 5 7 1019.4 1018.8 0.0
01/06:30am 17.0 15.6 12.3 74 2.6 E 11 15 6 8 1019.0 1018.4 0.0
01/06:00am 16.8 15.8 12.3 75 2.5 ENE 9 13 5 7 1018.8 1018.2 0.0
01/05:30am 16.7 15.7 12.3 75 2.4 ENE 9 11 5 6 1018.7 1018.1 0.0
01/05:00am 16.4 15.3 12.0 75 2.4 E 9 11 5 6 1018.5 1017.9 0.0
01/04:30am 16.6 15.9 12.0 74 2.5 ENE 7 7 4 4 1018.4 1017.8 0.0
01/04:00am 16.7 16.6 12.0 74 2.6 E 4 6 2 3 1018.6 1018.0 0.0
01/03:30am 16.6 15.7 11.5 72 2.8 ENE 7 9 4 5 1018.5 1017.9 0.0
01/03:00am 17.0 16.5 12.1 73 2.7 NE 6 9 3 5 1018.4 1017.8 0.0
01/02:30am 16.8 15.4 12.1 74 2.6 NE 11 13 6 7 1018.4 1017.8 0.0
01/02:00am 17.1 16.6 12.2 73 2.7 ENE 6 9 3 5 1018.7 1018.1 0.0
01/01:30am 17.1 16.7 12.4 74 2.6 NE 6 7 3 4 1018.7 1018.1 0.0
01/01:00am 16.9 16.2 12.0 73 2.7 NE 7 13 4 7 1018.6 1018.0 0.0
01/12:30am 17.3 16.7 12.2 72 2.8 NE 7 11 4 6 1019.0 1018.4 0.0
01/12:00am 17.1 15.6 11.8 71 2.9 NNE 11 17 6 9 1019.1 1018.5 0.0
 
Date/Time
EST
Temp
°C
App
Temp
°C
Dew
Point
Rel
Hum
%
Delta-T
°C
Wind Press
QNH
hPa
Press
MSL
hPa
Rain
since 9 am
mm
Dir
 
Spd
km/h
Gust
km/h
Spd
kts
Gust
kts
31/11:30pm 17.2 15.7 11.9 71 2.9 NNE 11 17 6 9 1019.1 1018.5 0.0
31/11:00pm 17.3 15.8 12.0 71 2.9 NNE 11 15 6 8 1019.4 1018.8 0.0
31/10:30pm 17.6 15.3 11.6 68 3.3 NNE 15 19 8 10 1019.3 1018.7 0.0
31/10:00pm 17.5 14.9 12.0 70 3.0 NNE 17 22 9 12 1019.2 1018.6 0.0
31/09:30pm 17.8 14.8 12.0 69 3.2 NNE 19 26 10 14 1019.0 1018.4 0.0
31/09:00pm 17.8 14.8 11.8 68 3.3 NNE 19 26 10 14 1019.1 1018.5 0.0
31/08:30pm 17.9 15.1 11.2 65 3.7 NNE 17 22 9 12 1018.8 1018.2 0.0
31/08:00pm 18.1 14.9 11.2 64 3.8 NE 19 26 10 14 1018.5 1017.9 0.0
31/07:30pm 17.7 14.9 11.5 67 3.4 NNE 17 22 9 12 1018.2 1017.6 0.0
31/07:00pm 17.7 15.0 11.7 68 3.3 NNE 17 22 9 12 1017.8 1017.2 0.0
31/06:30pm 17.7 15.1 11.9 69 3.2 NNE 17 22 9 12 1017.5 1016.9 0.0
31/06:00pm 17.7 15.2 12.2 70 3.1 N 17 22 9 12 1017.1 1016.5 0.0
31/05:30pm 18.2 16.1 12.4 69 3.3 N 15 22 8 12 1016.8 1016.1 0.0
31/05:00pm 18.9 16.1 12.6 67 3.6 N 19 24 10 13 1016.7 1016.0 0.0
31/04:30pm 19.6 18.2 12.1 62 4.2 N 11 15 6 8 1016.9 1016.3 0.0
31/04:00pm 20.2 19.2 12.4 61 4.4 NNE 9 13 5 7 1016.9 1016.3 0.0
31/03:30pm 20.6 19.9 12.1 58 4.8 NNE 7 11 4 6 1016.9 1016.3 0.0
31/03:00pm 19.1 19.1 13.7 71 3.1 SE 6 7 3 4 1017.0 1016.4 0.0
31/02:30pm 19.8 20.4 15.4 76 2.6 SSE 6 9 3 5 1017.1 1016.5 0.0
31/02:00pm 20.3 20.8 15.5 74 2.9 S 7 13 4 7 1017.5 1016.9 0.0
31/01:30pm 20.3 20.2 15.9 76 2.7 S 11 15 6 8 1017.9 1017.3 0.0
31/01:00pm 19.8 20.1 15.9 78 2.3 S 9 13 5 7 1018.3 1017.7 0.0
31/12:30pm 19.1 18.9 15.8 81 2.0 S 11 15 6 8 1018.8 1018.2 0.0
31/12:00pm 18.9 19.0 15.6 81 2.0 S 9 15 5 8 1019.0 1018.4 0.0
31/11:30am 18.9 18.6 15.4 80 2.1 S 11 15 6 8 1019.3 1018.7 0.0
31/11:00am 19.4 19.8 16.4 83 1.8 S 9 11 5 6 1019.7 1019.1 0.0
31/10:30am 20.1 19.7 14.0 68 3.6 SSW 9 13 5 7 1019.9 1019.3 0.0
31/10:00am 20.5 19.8 14.2 67 3.7 S 11 17 6 9 1020.1 1019.5 0.0

Other Formats:

Comma delimited format used in spreadsheet applications
http://www.bom.gov.au/fwo/IDQ60801/IDQ60801.94372.axf

JavaScript Object Notation format (JSON) in row-major order
http://www.bom.gov.au/fwo/IDQ60801/IDQ60801.94372.json